Time;durP1;ratioP1;P1;durP2;ratioP2;P2;SDS_P1;SDS_P2;PMS_P1;PMS_P2;Temp;Humidity;BMP_temperature;BMP_pressure;BME280_temperature;BME280_humidity;BME280_pressure;Samples;Min_cycle;Max_cycle;Signal;HPM_P1;HPM_P2
2021/04/14 00:01:11;;;;;;;4.78;1.33;;;;;;;;;;5072153;28;20112;-85
2021/04/14 00:03:37;;;;;;;2.42;1.20;;;;;;;;;;5056132;28;20025;-85
2021/04/14 00:06:07;;;;;;;2.28;1.63;;;;;;;;;;5072043;28;20032;-85
2021/04/14 00:08:33;;;;;;;2.17;1.20;;;;;;;;;;5071873;28;20025;-85
2021/04/14 00:11:00;;;;;;;2.00;1.30;;;;;;;;;;5071744;28;20111;-85
2021/04/14 00:13:30;;;;;;;2.00;1.25;;;;;;;;;;5071738;28;20036;-85
2021/04/14 00:15:58;;;;;;;1.20;1.05;;;;;;;;;;5056477;28;20107;-84
2021/04/14 00:18:25;;;;;;;2.28;1.13;;;;;;;;;;5071482;28;20474;-84
2021/04/14 00:20:51;;;;;;;2.78;1.23;;;;;;;;;;5071441;28;20064;-84
2021/04/14 00:23:18;;;;;;;2.60;1.30;;;;;;;;;;5056225;28;20164;-84
2021/04/14 00:25:46;;;;;;;4.72;1.25;;;;;;;;;;5071327;28;20028;-84
2021/04/14 00:28:12;;;;;;;2.88;1.20;;;;;;;;;;5071333;28;20029;-84
2021/04/14 00:30:38;;;;;;;1.80;1.13;;;;;;;;;;5071453;28;20028;-84
2021/04/14 00:33:05;;;;;;;2.85;1.42;;;;;;;;;;5071551;28;20120;-84
2021/04/14 00:35:31;;;;;;;1.75;1.10;;;;;;;;;;5071143;28;20044;-84
2021/04/14 00:37:57;;;;;;;1.98;1.38;;;;;;;;;;5056008;28;20024;-84
2021/04/14 00:40:27;;;;;;;4.45;1.70;;;;;;;;;;5056552;28;20053;-84
2021/04/14 00:42:53;;;;;;;2.85;1.50;;;;;;;;;;5055441;28;20060;-84
2021/04/14 00:45:19;;;;;;;4.50;1.30;;;;;;;;;;5056113;28;20127;-84
2021/04/14 00:47:45;;;;;;;3.17;1.20;;;;;;;;;;5056021;28;20056;-84
2021/04/14 00:50:13;;;;;;;1.52;1.17;;;;;;;;;;5055957;28;20036;-84
2021/04/14 00:52:39;;;;;;;2.25;1.42;;;;;;;;;;5056428;28;20058;-84
2021/04/14 00:55:07;;;;;;;1.58;1.27;;;;;;;;;;5071685;28;20025;-84
2021/04/14 00:57:33;;;;;;;3.05;1.30;;;;;;;;;;5055841;28;20025;-84
2021/04/14 00:59:59;;;;;;;2.40;1.40;;;;;;;;;;5055717;28;20021;-84
2021/04/14 01:02:29;;;;;;;2.47;1.63;;;;;;;;;;5071596;28;20074;-84
2021/04/14 01:04:55;;;;;;;3.42;1.70;;;;;;;;;;5056110;28;20045;-84
2021/04/14 01:07:21;;;;;;;4.38;1.50;;;;;;;;;;5055559;28;20025;-84
2021/04/14 01:09:47;;;;;;;1.70;1.45;;;;;;;;;;5055553;28;20033;-84
2021/04/14 01:12:14;;;;;;;1.65;1.30;;;;;;;;;;5055302;28;20111;-84
2021/04/14 01:14:40;;;;;;;2.13;1.30;;;;;;;;;;5070339;28;20033;-84
2021/04/14 01:17:06;;;;;;;1.85;1.23;;;;;;;;;;5055160;28;20481;-84
2021/04/14 01:19:32;;;;;;;1.92;1.30;;;;;;;;;;5054966;28;20025;-84
2021/04/14 01:21:58;;;;;;;2.70;1.48;;;;;;;;;;5054840;28;20032;-84
2021/04/14 01:24:24;;;;;;;2.55;1.38;;;;;;;;;;5069872;28;20112;-84
2021/04/14 01:26:51;;;;;;;4.07;1.40;;;;;;;;;;5070297;28;20025;-84
2021/04/14 01:29:17;;;;;;;2.47;1.35;;;;;;;;;;5070650;28;20025;-84
2021/04/14 01:31:44;;;;;;;3.90;1.58;;;;;;;;;;5054002;28;20029;-84
2021/04/14 01:34:12;;;;;;;2.28;1.38;;;;;;;;;;5070388;28;20499;-84
2021/04/14 01:36:39;;;;;;;1.83;1.10;;;;;;;;;;5069971;28;20032;-84
2021/04/14 01:39:06;;;;;;;2.70;1.52;;;;;;;;;;5070571;28;20051;-84
2021/04/14 01:41:32;;;;;;;1.85;1.40;;;;;;;;;;5069331;28;20025;-84
2021/04/14 01:43:59;;;;;;;3.17;1.40;;;;;;;;;;5070334;28;20029;-84
2021/04/14 01:46:25;;;;;;;1.50;1.15;;;;;;;;;;5069859;28;20119;-84
2021/04/14 01:48:51;;;;;;;2.30;1.40;;;;;;;;;;5054433;28;20024;-84
2021/04/14 01:51:17;;;;;;;3.85;1.42;;;;;;;;;;5069668;28;20025;-84
2021/04/14 01:53:44;;;;;;;2.42;1.42;;;;;;;;;;5069528;28;20036;-84
2021/04/14 01:56:10;;;;;;;2.70;1.60;;;;;;;;;;5053557;28;20041;-84
2021/04/14 01:58:36;;;;;;;2.22;1.50;;;;;;;;;;5069955;28;20052;-84
2021/04/14 02:01:07;;;;;;;3.03;1.35;;;;;;;;;;5070001;28;20025;-84
2021/04/14 02:03:34;;;;;;;2.45;1.50;;;;;;;;;;5069317;28;20614;-84
2021/04/14 02:06:00;;;;;;;2.58;1.50;;;;;;;;;;5070475;28;20035;-84
2021/04/14 02:08:26;;;;;;;3.70;1.80;;;;;;;;;;5070308;28;20373;-84
2021/04/14 02:10:53;;;;;;;2.28;1.40;;;;;;;;;;5070040;28;20510;-84
2021/04/14 02:13:21;;;;;;;2.92;1.50;;;;;;;;;;5054940;28;20447;-84
2021/04/14 02:15:49;;;;;;;2.80;1.33;;;;;;;;;;5069637;28;20029;-84
2021/04/14 02:18:15;;;;;;;2.47;1.38;;;;;;;;;;5069395;28;20439;-84
2021/04/14 02:20:41;;;;;;;2.35;1.40;;;;;;;;;;5054345;28;20033;-84
2021/04/14 02:23:12;;;;;;;1.55;1.40;;;;;;;;;;5069655;28;20064;-84
2021/04/14 02:25:38;;;;;;;2.90;1.40;;;;;;;;;;5054294;28;20048;-85
2021/04/14 02:28:04;;;;;;;3.25;1.33;;;;;;;;;;5055212;28;20021;-84
2021/04/14 02:30:30;;;;;;;4.38;1.75;;;;;;;;;;5054637;28;20048;-84
2021/04/14 02:32:57;;;;;;;2.50;1.50;;;;;;;;;;5069801;28;20499;-84
2021/04/14 02:35:26;;;;;;;2.63;1.67;;;;;;;;;;5069524;28;20067;-84
2021/04/14 02:37:53;;;;;;;3.13;1.60;;;;;;;;;;5069826;28;20520;-84
2021/04/14 02:40:19;;;;;;;3.47;1.52;;;;;;;;;;5069933;28;20438;-84
2021/04/14 02:42:45;;;;;;;2.60;1.50;;;;;;;;;;5069021;28;20060;-84
2021/04/14 02:45:13;;;;;;;3.08;1.30;;;;;;;;;;5069577;28;20021;-84
2021/04/14 02:47:39;;;;;;;2.85;1.88;;;;;;;;;;5069710;28;20037;-84
2021/04/14 02:50:06;;;;;;;3.08;1.40;;;;;;;;;;5069219;28;20021;-84
2021/04/14 02:52:33;;;;;;;2.05;1.38;;;;;;;;;;5053818;28;20137;-84
2021/04/14 02:54:59;;;;;;;3.47;1.30;;;;;;;;;;5054176;28;20029;-84
2021/04/14 02:57:25;;;;;;;2.55;1.48;;;;;;;;;;5069369;28;20119;-84
2021/04/14 02:59:53;;;;;;;1.92;1.30;;;;;;;;;;5054208;28;20044;-84
2021/04/14 03:02:19;;;;;;;3.58;1.75;;;;;;;;;;5053683;28;20115;-84
2021/04/14 03:04:45;;;;;;;1.75;1.30;;;;;;;;;;5069305;28;20025;-84
2021/04/14 03:07:12;;;;;;;2.50;1.30;;;;;;;;;;5056518;28;20112;-84
2021/04/14 03:09:38;;;;;;;1.80;1.40;;;;;;;;;;5057382;28;20025;-84
2021/04/14 03:12:04;;;;;;;3.38;1.55;;;;;;;;;;5056913;28;20037;-84
2021/04/14 03:14:30;;;;;;;2.92;1.80;;;;;;;;;;5072755;28;20031;-84
2021/04/14 03:16:57;;;;;;;3.10;1.80;;;;;;;;;;5057892;28;20479;-84
2021/04/14 03:19:23;;;;;;;2.63;1.60;;;;;;;;;;5056932;28;20419;-84
2021/04/14 03:21:49;;;;;;;3.67;1.40;;;;;;;;;;5056730;28;20034;-85
2021/04/14 03:24:15;;;;;;;4.72;1.50;;;;;;;;;;5057408;28;20032;-84
2021/04/14 03:26:41;;;;;;;2.35;1.88;;;;;;;;;;5057377;28;20071;-84
2021/04/14 03:29:07;;;;;;;1.48;1.30;;;;;;;;;;5072507;28;20036;-84
2021/04/14 03:31:34;;;;;;;6.28;1.60;;;;;;;;;;5056497;28;20148;-84
2021/04/14 03:34:00;;;;;;;3.85;1.83;;;;;;;;;;5057574;28;20048;-84
2021/04/14 03:36:26;;;;;;;1.98;1.40;;;;;;;;;;5057067;28;20021;-84
2021/04/14 03:38:52;;;;;;;2.38;1.70;;;;;;;;;;5072817;28;20033;-84
2021/04/14 03:41:18;;;;;;;2.20;1.38;;;;;;;;;;5072918;28;20025;-84
2021/04/14 03:43:46;;;;;;;3.58;1.48;;;;;;;;;;5072201;28;20409;-84
2021/04/14 03:46:13;;;;;;;2.17;1.40;;;;;;;;;;5073060;28;20032;-84
2021/04/14 03:48:40;;;;;;;4.28;1.60;;;;;;;;;;5057607;28;20021;-84
2021/04/14 03:51:06;;;;;;;1.25;1.02;;;;;;;;;;5073169;28;20503;-84
2021/04/14 03:53:34;;;;;;;4.30;1.75;;;;;;;;;;5056743;28;20035;-84
2021/04/14 03:56:02;;;;;;;2.38;1.40;;;;;;;;;;5057234;28;20017;-84
2021/04/14 03:58:28;;;;;;;3.42;1.35;;;;;;;;;;5057272;28;20053;-84
2021/04/14 04:00:55;;;;;;;2.38;1.30;;;;;;;;;;5057477;28;20032;-84
2021/04/14 04:03:22;;;;;;;3.45;1.70;;;;;;;;;;5056514;28;20025;-84
2021/04/14 04:05:48;;;;;;;1.55;1.30;;;;;;;;;;5056926;28;20044;-84
2021/04/14 04:08:15;;;;;;;2.75;1.55;;;;;;;;;;5072090;28;20508;-84
2021/04/14 04:10:41;;;;;;;3.10;1.85;;;;;;;;;;5072121;28;20013;-84
2021/04/14 04:13:07;;;;;;;2.60;1.23;;;;;;;;;;5058196;28;20108;-84
2021/04/14 04:15:33;;;;;;;2.42;1.58;;;;;;;;;;5072189;28;20078;-84
2021/04/14 04:18:02;;;;;;;2.72;1.20;;;;;;;;;;5056196;28;20401;-84
2021/04/14 04:20:29;;;;;;;2.65;1.58;;;;;;;;;;5072003;28;20135;-84
2021/04/14 04:22:55;;;;;;;2.70;1.38;;;;;;;;;;5056640;28;20111;-84
2021/04/14 04:25:21;;;;;;;2.25;1.40;;;;;;;;;;5072191;28;20025;-84
2021/04/14 04:27:47;;;;;;;4.50;1.67;;;;;;;;;;5071750;28;20514;-84
2021/04/14 04:30:13;;;;;;;7.80;1.95;;;;;;;;;;5073183;28;20032;-85
2021/04/14 04:32:40;;;;;;;4.53;1.70;;;;;;;;;;5058740;28;20028;-85
2021/04/14 04:35:07;;;;;;;2.30;1.20;;;;;;;;;;5072056;28;20048;-85
2021/04/14 04:37:33;;;;;;;3.00;1.52;;;;;;;;;;5056898;28;20045;-85
2021/04/14 04:39:59;;;;;;;2.85;1.33;;;;;;;;;;5056507;28;20077;-85
2021/04/14 04:42:26;;;;;;;2.88;1.45;;;;;;;;;;5071304;28;20036;-85
2021/04/14 04:44:52;;;;;;;2.20;1.50;;;;;;;;;;5071395;28;20045;-85
2021/04/14 04:47:18;;;;;;;1.85;1.20;;;;;;;;;;5071855;28;20025;-85
2021/04/14 04:49:44;;;;;;;2.72;1.40;;;;;;;;;;5071539;28;20021;-85
2021/04/14 04:52:10;;;;;;;3.63;1.80;;;;;;;;;;5071394;28;20111;-85
2021/04/14 04:54:36;;;;;;;6.03;3.67;;;;;;;;;;5071651;28;20025;-85
2021/04/14 04:57:02;;;;;;;3.10;1.98;;;;;;;;;;5071111;28;20029;-85
2021/04/14 04:59:29;;;;;;;3.35;1.80;;;;;;;;;;5055789;28;20013;-85
2021/04/14 05:01:57;;;;;;;3.47;1.42;;;;;;;;;;5070693;28;20022;-85
2021/04/14 05:04:23;;;;;;;3.80;1.52;;;;;;;;;;5071041;28;20571;-85
2021/04/14 05:06:49;;;;;;;2.80;1.80;;;;;;;;;;5055715;28;20021;-85
2021/04/14 05:09:16;;;;;;;2.45;1.52;;;;;;;;;;5070990;28;20055;-85
2021/04/14 05:11:42;;;;;;;4.22;1.80;;;;;;;;;;5070623;28;20510;-85
2021/04/14 05:14:08;;;;;;;1.95;1.40;;;;;;;;;;5055488;28;20025;-85
2021/04/14 05:16:34;;;;;;;3.17;1.40;;;;;;;;;;5071132;28;20021;-85
2021/04/14 05:19:00;;;;;;;2.67;1.63;;;;;;;;;;5070793;28;20083;-85
2021/04/14 05:21:27;;;;;;;4.50;1.60;;;;;;;;;;5070163;28;20495;-85
2021/04/14 05:23:53;;;;;;;2.63;1.58;;;;;;;;;;5055067;28;20079;-85
2021/04/14 05:26:20;;;;;;;3.50;1.58;;;;;;;;;;5070258;28;20029;-85
2021/04/14 05:28:46;;;;;;;2.95;1.80;;;;;;;;;;5070789;28;20025;-85
2021/04/14 05:31:13;;;;;;;1.85;1.50;;;;;;;;;;5055538;28;20024;-85
2021/04/14 05:33:39;;;;;;;4.30;1.80;;;;;;;;;;5055289;28;20100;-85
2021/04/14 05:36:07;;;;;;;1.88;1.40;;;;;;;;;;5056028;28;20391;-85
2021/04/14 05:38:33;;;;;;;3.30;1.60;;;;;;;;;;5069972;28;20466;-85
2021/04/14 05:41:00;;;;;;;1.73;1.52;;;;;;;;;;5055389;28;20536;-85
2021/04/14 05:43:35;;;;;;;3.20;1.88;;;;;;;;;;5070497;28;20052;-85
2021/04/14 05:46:03;;;;;;;5.20;1.70;;;;;;;;;;5070023;28;20067;-85
2021/04/14 05:48:29;;;;;;;3.08;1.70;;;;;;;;;;5069938;28;20589;-85
2021/04/14 05:50:58;;;;;;;2.78;1.33;;;;;;;;;;5070954;28;20403;-85
2021/04/14 05:53:24;;;;;;;2.30;1.50;;;;;;;;;;5069378;28;20028;-85
2021/04/14 05:55:51;;;;;;;3.60;1.50;;;;;;;;;;5055053;28;20057;-85
2021/04/14 05:58:17;;;;;;;2.83;1.55;;;;;;;;;;5070026;28;20496;-85
2021/04/14 06:00:43;;;;;;;2.97;1.60;;;;;;;;;;5069386;28;20052;-85
2021/04/14 06:03:09;;;;;;;2.00;1.40;;;;;;;;;;5054682;28;20028;-85
2021/04/14 06:05:35;;;;;;;3.85;1.27;;;;;;;;;;5069921;28;20025;-85
2021/04/14 06:08:02;;;;;;;2.92;1.77;;;;;;;;;;5054345;28;20144;-85
2021/04/14 06:10:28;;;;;;;4.05;1.58;;;;;;;;;;5054537;28;20021;-85
2021/04/14 06:12:55;;;;;;;2.75;1.70;;;;;;;;;;5070464;28;20028;-85
2021/04/14 06:15:27;;;;;;;3.20;1.70;;;;;;;;;;5055026;28;20029;-85
2021/04/14 06:17:54;;;;;;;2.20;1.65;;;;;;;;;;5069322;28;20056;-85
2021/04/14 06:20:24;;;;;;;2.40;1.50;;;;;;;;;;5054330;28;20028;-85
2021/04/14 06:22:51;;;;;;;4.07;1.55;;;;;;;;;;5069577;28;20036;-85
2021/04/14 06:25:19;;;;;;;2.85;1.45;;;;;;;;;;5068603;28;20082;-85
2021/04/14 06:27:59;;;;;;;4.10;1.60;;;;;;;;;;5054327;28;20112;-85
2021/04/14 06:30:26;;;;;;;4.97;1.35;;;;;;;;;;5070751;28;20021;-85
2021/04/14 06:32:53;;;;;;;2.95;1.40;;;;;;;;;;5054015;28;20108;-85
2021/04/14 06:35:21;;;;;;;2.35;1.42;;;;;;;;;;5054258;28;20079;-85
2021/04/14 06:37:47;;;;;;;5.55;1.65;;;;;;;;;;5055375;28;20074;-85
2021/04/14 06:43:06;;;;;;;3.25;1.45;;;;;;;;;;5053457;28;20036;-85
2021/04/14 06:45:42;;;;;;;2.08;1.77;;;;;;;;;;5053261;28;20033;-85
2021/04/14 06:48:20;;;;;;;3.35;1.70;;;;;;;;;;5053630;28;20021;-85
2021/04/14 06:50:48;;;;;;;2.00;1.40;;;;;;;;;;5068227;28;20024;-86
2021/04/14 06:53:33;;;;;;;5.78;1.52;;;;;;;;;;5068733;28;20025;-86
2021/04/14 06:56:08;;;;;;;2.33;1.40;;;;;;;;;;5069189;28;20491;-86
2021/04/14 06:58:37;;;;;;;4.53;2.00;;;;;;;;;;5052788;28;20071;-76
2021/04/14 07:01:05;;;;;;;1.95;1.58;;;;;;;;;;5063393;28;20039;-75
2021/04/14 07:03:35;;;;;;;2.60;1.52;;;;;;;;;;5066757;28;20020;-75
2021/04/14 07:06:03;;;;;;;2.47;1.40;;;;;;;;;;5071255;28;20047;-75
2021/04/14 07:08:35;;;;;;;4.82;2.00;;;;;;;;;;5059565;28;20496;-75
2021/04/14 07:11:02;;;;;;;4.30;1.58;;;;;;;;;;5042081;28;20021;-76
2021/04/14 07:13:30;;;;;;;2.95;1.50;;;;;;;;;;5065913;28;20027;-76
2021/04/14 07:16:09;;;;;;;3.90;1.40;;;;;;;;;;5058505;28;20074;-76
2021/04/14 07:18:45;;;;;;;7.57;1.67;;;;;;;;;;5060775;28;20045;-75
2021/04/14 07:21:11;;;;;;;6.63;1.50;;;;;;;;;;5050910;28;20033;-76
2021/04/14 07:23:51;;;;;;;5.90;1.77;;;;;;;;;;5055012;28;20484;-75
2021/04/14 07:26:17;;;;;;;5.28;1.40;;;;;;;;;;5068548;28;20110;-74
2021/04/14 07:28:52;;;;;;;3.35;1.95;;;;;;;;;;5074222;28;20509;-73
2021/04/14 07:31:41;;;;;;;4.20;1.45;;;;;;;;;;5069109;28;20021;-73
2021/04/14 07:34:07;;;;;;;3.47;1.30;;;;;;;;;;5067098;28;20021;-72
2021/04/14 07:36:44;;;;;;;4.32;1.42;;;;;;;;;;5052213;28;20091;-73
2021/04/14 07:39:18;;;;;;;3.40;1.50;;;;;;;;;;5070720;28;20120;-73
2021/04/14 07:41:51;;;;;;;3.53;1.40;;;;;;;;;;5027081;28;20029;-73
2021/04/14 07:44:28;;;;;;;3.38;1.63;;;;;;;;;;5050316;28;20025;-73
2021/04/14 07:46:54;;;;;;;4.20;1.70;;;;;;;;;;5066351;28;20061;-73
2021/04/14 07:49:21;;;;;;;3.25;1.63;;;;;;;;;;5049530;28;20021;-73
2021/04/14 07:51:47;;;;;;;3.00;1.60;;;;;;;;;;5048933;28;20033;-73
2021/04/14 07:54:17;;;;;;;2.45;1.60;;;;;;;;;;5068418;28;20047;-73
2021/04/14 07:56:48;;;;;;;4.18;1.40;;;;;;;;;;5054060;28;20036;-73
2021/04/14 07:59:17;;;;;;;4.18;2.22;;;;;;;;;;5036279;28;20052;-73
2021/04/14 08:01:50;;;;;;;3.13;1.33;;;;;;;;;;5051212;28;20048;-73
2021/04/14 08:04:16;;;;;;;4.88;1.50;;;;;;;;;;5045649;28;20021;-73
2021/04/14 08:06:43;;;;;;;3.53;1.60;;;;;;;;;;5053491;28;20116;-73
2021/04/14 08:09:14;;;;;;;6.85;1.60;;;;;;;;;;5053103;28;20101;-73
2021/04/14 08:11:40;;;;;;;2.83;1.33;;;;;;;;;;5052002;28;20036;-73
2021/04/14 08:14:08;;;;;;;10.15;2.33;;;;;;;;;;5045482;28;20024;-73
2021/04/14 08:16:36;;;;;;;4.47;1.30;;;;;;;;;;5052957;28;20025;-73
2021/04/14 08:19:06;;;;;;;3.53;1.98;;;;;;;;;;5052707;28;20056;-73
2021/04/14 08:21:35;;;;;;;4.53;1.65;;;;;;;;;;5051202;28;20381;-74
2021/04/14 08:24:03;;;;;;;5.30;1.52;;;;;;;;;;5068816;28;20032;-73
2021/04/14 08:26:30;;;;;;;4.50;3.17;;;;;;;;;;5052055;28;20086;-74
2021/04/14 08:29:06;;;;;;;7.70;1.70;;;;;;;;;;5052840;28;20108;-73
2021/04/14 08:31:49;;;;;;;3.83;1.75;;;;;;;;;;5063422;28;20029;-73
2021/04/14 08:34:27;;;;;;;2.75;1.50;;;;;;;;;;5068299;28;20021;-73
2021/04/14 08:36:56;;;;;;;6.82;1.85;;;;;;;;;;5048774;28;20025;-74
2021/04/14 08:39:39;;;;;;;7.13;1.55;;;;;;;;;;5052759;28;20111;-74
2021/04/14 08:42:15;;;;;;;4.47;2.00;;;;;;;;;;5068212;28;20112;-73
2021/04/14 08:44:43;;;;;;;5.95;1.80;;;;;;;;;;5069021;28;20545;-74
2021/04/14 08:47:15;;;;;;;4.65;2.25;;;;;;;;;;5053330;28;20029;-73
2021/04/14 08:49:42;;;;;;;8.57;1.77;;;;;;;;;;5065186;28;20021;-73
2021/04/14 08:52:10;;;;;;;4.10;1.70;;;;;;;;;;5054747;28;20119;-73
2021/04/14 08:54:36;;;;;;;3.75;1.55;;;;;;;;;;5068351;28;20021;-74
2021/04/14 08:57:05;;;;;;;8.50;1.60;;;;;;;;;;5068479;28;20032;-74
2021/04/14 08:59:31;;;;;;;6.82;1.92;;;;;;;;;;5053452;28;20036;-73
2021/04/14 09:01:57;;;;;;;4.55;1.92;;;;;;;;;;5052103;28;20064;-73
2021/04/14 09:04:24;;;;;;;5.93;3.38;;;;;;;;;;5059603;28;20116;-73
2021/04/14 09:06:50;;;;;;;8.20;2.47;;;;;;;;;;5034857;28;20603;-73
2021/04/14 09:09:24;;;;;;;3.88;2.08;;;;;;;;;;5033270;28;20022;-73
2021/04/14 09:12:06;;;;;;;5.63;2.17;;;;;;;;;;5058132;28;20491;-73
2021/04/14 09:14:34;;;;;;;4.15;1.40;;;;;;;;;;5054811;28;20384;-73
2021/04/14 09:17:00;;;;;;;6.75;2.38;;;;;;;;;;5053057;28;20025;-73
2021/04/14 09:19:39;;;;;;;4.30;2.20;;;;;;;;;;5052792;28;20174;-73
2021/04/14 09:22:18;;;;;;;5.03;2.42;;;;;;;;;;5051612;28;20021;-73
2021/04/14 09:24:48;;;;;;;4.10;2.13;;;;;;;;;;5051384;28;20418;-73
2021/04/14 09:27:24;;;;;;;3.22;1.90;;;;;;;;;;5052690;28;20025;-73
2021/04/14 09:29:53;;;;;;;12.55;2.65;;;;;;;;;;5053097;28;20516;-73
2021/04/14 09:32:35;;;;;;;8.85;2.47;;;;;;;;;;5051698;28;20652;-73
2021/04/14 09:35:12;;;;;;;6.72;2.35;;;;;;;;;;5053067;28;20024;-74
2021/04/14 09:37:38;;;;;;;6.78;1.60;;;;;;;;;;5052489;28;20033;-74
2021/04/14 09:40:06;;;;;;;2.50;1.83;;;;;;;;;;5070135;28;20025;-74
2021/04/14 09:42:34;;;;;;;2.85;1.83;;;;;;;;;;5071538;28;20471;-74
2021/04/14 09:45:19;;;;;;;6.38;1.92;;;;;;;;;;5036190;28;20108;-74
2021/04/14 09:47:45;;;;;;;6.25;2.03;;;;;;;;;;5068054;28;20029;-74
2021/04/14 09:50:17;;;;;;;7.82;3.53;;;;;;;;;;5051781;28;20024;-74
2021/04/14 09:52:43;;;;;;;4.88;1.85;;;;;;;;;;5051669;28;20029;-74
2021/04/14 09:55:09;;;;;;;4.22;1.92;;;;;;;;;;5052424;28;20036;-74
2021/04/14 09:57:40;;;;;;;5.00;1.70;;;;;;;;;;5052174;28;20071;-74
2021/04/14 10:00:14;;;;;;;6.28;2.05;;;;;;;;;;5052353;28;20377;-74
2021/04/14 10:02:40;;;;;;;4.07;1.73;;;;;;;;;;5050340;28;20025;-74
2021/04/14 10:05:06;;;;;;;3.22;1.90;;;;;;;;;;5055652;28;20032;-74
2021/04/14 10:07:35;;;;;;;3.33;1.85;;;;;;;;;;5066661;28;20064;-74
2021/04/14 10:10:04;;;;;;;2.78;1.80;;;;;;;;;;5052184;28;20476;-74
2021/04/14 10:12:30;;;;;;;3.80;1.75;;;;;;;;;;5051900;28;20539;-74
2021/04/14 10:15:00;;;;;;;8.85;3.45;;;;;;;;;;5044733;28;20031;-74
2021/04/14 10:17:29;;;;;;;6.40;2.20;;;;;;;;;;5056640;28;20025;-74
2021/04/14 10:19:59;;;;;;;5.82;2.28;;;;;;;;;;5071226;28;20047;-74
2021/04/14 10:22:39;;;;;;;3.53;2.20;;;;;;;;;;5070366;28;20426;-75
2021/04/14 10:25:06;;;;;;;9.25;1.83;;;;;;;;;;5061939;28;20116;-74
2021/04/14 10:27:33;;;;;;;7.80;2.25;;;;;;;;;;5051796;28;20028;-74
2021/04/14 10:30:06;;;;;;;4.78;2.22;;;;;;;;;;5048452;28;20025;-74
2021/04/14 10:32:33;;;;;;;5.85;1.83;;;;;;;;;;5041186;28;20107;-75
2021/04/14 10:35:07;;;;;;;9.18;2.05;;;;;;;;;;5051535;28;20029;-75
2021/04/14 10:37:40;;;;;;;5.72;1.95;;;;;;;;;;5051313;28;20029;-75
2021/04/14 10:40:09;;;;;;;3.72;1.80;;;;;;;;;;5045035;28;20452;-74
2021/04/14 10:42:35;;;;;;;3.22;1.50;;;;;;;;;;5031708;28;20025;-75
2021/04/14 10:45:07;;;;;;;5.35;1.70;;;;;;;;;;5031533;28;20112;-75
2021/04/14 10:47:35;;;;;;;3.05;1.83;;;;;;;;;;5039234;28;20044;-75
2021/04/14 10:50:14;;;;;;;4.47;1.73;;;;;;;;;;5059775;28;20021;-75
2021/04/14 10:52:41;;;;;;;2.80;1.60;;;;;;;;;;5052251;28;20017;-76
2021/04/14 10:55:15;;;;;;;3.58;1.95;;;;;;;;;;5033833;28;20115;-75
2021/04/14 10:57:42;;;;;;;3.90;1.70;;;;;;;;;;5051855;28;20029;-75
2021/04/14 11:00:14;;;;;;;5.55;3.55;;;;;;;;;;5059901;28;20040;-75
2021/04/14 11:02:42;;;;;;;5.65;2.58;;;;;;;;;;5062677;28;20486;-76
2021/04/14 11:05:09;;;;;;;7.47;2.42;;;;;;;;;;5059708;28;20163;-75
2021/04/14 11:07:36;;;;;;;3.75;2.00;;;;;;;;;;5053343;28;20074;-76
2021/04/14 11:10:04;;;;;;;2.22;1.60;;;;;;;;;;5071609;28;20031;-76
2021/04/14 11:12:30;;;;;;;1.33;1.23;;;;;;;;;;5071595;28;20024;-76
2021/04/14 11:14:58;;;;;;;3.30;1.55;;;;;;;;;;5036158;28;20028;-77
2021/04/14 11:17:28;;;;;;;3.70;1.80;;;;;;;;;;5051670;28;20020;-76
2021/04/14 11:19:59;;;;;;;4.38;1.95;;;;;;;;;;5052176;28;20037;-76
2021/04/14 11:22:26;;;;;;;2.17;1.45;;;;;;;;;;5066740;28;20029;-76
2021/04/14 11:24:54;;;;;;;5.78;3.50;;;;;;;;;;5063024;28;20104;-75
2021/04/14 11:27:25;;;;;;;3.42;1.85;;;;;;;;;;5050313;28;20117;-76
2021/04/14 11:29:52;;;;;;;3.33;1.55;;;;;;;;;;5055962;28;20029;-76
2021/04/14 11:32:18;;;;;;;3.70;1.67;;;;;;;;;;5054721;28;20025;-76
2021/04/14 11:34:54;;;;;;;4.50;1.38;;;;;;;;;;5055397;28;20028;-77
2021/04/14 11:37:27;;;;;;;2.92;1.60;;;;;;;;;;5054988;28;20017;-76
2021/04/14 11:39:55;;;;;;;3.92;1.50;;;;;;;;;;5052581;28;20041;-76
2021/04/14 11:42:22;;;;;;;5.25;1.27;;;;;;;;;;5062595;28;20031;-75
2021/04/14 11:44:54;;;;;;;4.07;1.38;;;;;;;;;;5048792;28;20029;-75
2021/04/14 11:47:34;;;;;;;5.13;2.25;;;;;;;;;;5050920;28;20045;-75
2021/04/14 11:50:14;;;;;;;6.32;2.72;;;;;;;;;;5057621;28;20023;-76
2021/04/14 11:52:48;;;;;;;2.75;1.58;;;;;;;;;;5035211;28;20024;-75
2021/04/14 11:55:14;;;;;;;3.45;1.67;;;;;;;;;;5050460;28;20427;-75
2021/04/14 11:57:43;;;;;;;4.07;1.48;;;;;;;;;;5034781;28;20120;-75
2021/04/14 12:00:22;;;;;;;5.80;1.40;;;;;;;;;;5035140;28;20021;-76
2021/04/14 12:02:50;;;;;;;2.15;1.15;;;;;;;;;;5045501;28;20126;-75
2021/04/14 12:05:16;;;;;;;5.20;1.35;;;;;;;;;;5055146;28;20464;-76
2021/04/14 12:07:43;;;;;;;4.70;1.70;;;;;;;;;;5053794;28;20108;-76
2021/04/14 12:10:09;;;;;;;6.00;1.80;;;;;;;;;;5055134;28;20044;-76
2021/04/14 12:12:35;;;;;;;8.05;1.80;;;;;;;;;;5054836;28;20033;-76
2021/04/14 12:15:01;;;;;;;6.93;1.67;;;;;;;;;;5054396;28;20029;-76
2021/04/14 12:17:27;;;;;;;3.97;1.23;;;;;;;;;;5054600;28;20491;-76
2021/04/14 12:19:54;;;;;;;3.63;1.65;;;;;;;;;;5054571;28;20488;-76
2021/04/14 12:22:20;;;;;;;6.57;1.60;;;;;;;;;;5054328;28;20021;-76
2021/04/14 12:24:46;;;;;;;4.25;1.30;;;;;;;;;;5042358;28;20112;-76
2021/04/14 12:27:12;;;;;;;3.30;1.60;;;;;;;;;;5058021;28;20032;-76
2021/04/14 12:29:39;;;;;;;8.30;1.45;;;;;;;;;;5074629;28;20056;-76
2021/04/14 12:32:06;;;;;;;3.33;1.35;;;;;;;;;;5067727;28;20025;-76
2021/04/14 12:34:32;;;;;;;5.38;1.23;;;;;;;;;;5080075;28;20498;-76
2021/04/14 12:36:58;;;;;;;3.90;1.58;;;;;;;;;;5074382;28;20051;-76
2021/04/14 12:39:24;;;;;;;4.72;1.30;;;;;;;;;;5049917;28;20044;-76
2021/04/14 12:41:51;;;;;;;4.35;1.48;;;;;;;;;;5053085;28;20089;-76
2021/04/14 12:44:19;;;;;;;6.55;1.60;;;;;;;;;;5054473;28;20025;-76
2021/04/14 12:46:47;;;;;;;7.50;1.60;;;;;;;;;;5054451;28;20040;-76
2021/04/14 12:49:14;;;;;;;3.20;1.25;;;;;;;;;;5048709;28;20060;-75
2021/04/14 12:51:43;;;;;;;3.58;1.25;;;;;;;;;;5054557;28;20044;-76
2021/04/14 12:54:28;;;;;;;6.35;1.65;;;;;;;;;;5074476;28;20036;-76
2021/04/14 12:56:57;;;;;;;4.60;1.30;;;;;;;;;;5067053;28;20164;-76
2021/04/14 12:59:28;;;;;;;6.05;1.27;;;;;;;;;;5064007;28;20032;-75
2021/04/14 13:01:56;;;;;;;5.70;1.40;;;;;;;;;;5073507;28;20107;-75
2021/04/14 13:04:27;;;;;;;2.03;1.17;;;;;;;;;;5070564;28;20040;-75
2021/04/14 13:06:56;;;;;;;5.13;1.40;;;;;;;;;;5074356;28;20025;-75
2021/04/14 13:09:23;;;;;;;4.85;1.40;;;;;;;;;;5073898;28;20056;-75
2021/04/14 13:11:56;;;;;;;3.30;1.23;;;;;;;;;;5073297;28;20458;-75
2021/04/14 13:14:22;;;;;;;4.82;1.40;;;;;;;;;;5064300;28;20107;-76
2021/04/14 13:17:11;;;;;;;3.63;1.52;;;;;;;;;;5053186;28;20523;-76
2021/04/14 13:19:38;;;;;;;6.78;1.48;;;;;;;;;;5028083;28;20050;-76
2021/04/14 13:22:05;;;;;;;4.55;1.80;;;;;;;;;;5035625;28;20033;-76
2021/04/14 13:24:50;;;;;;;4.50;1.13;;;;;;;;;;5037359;28;20048;-76
2021/04/14 13:27:35;;;;;;;4.70;1.50;;;;;;;;;;5033241;28;20026;-76
2021/04/14 13:30:01;;;;;;;6.43;1.20;;;;;;;;;;5045888;28;20049;-76
2021/04/14 13:32:35;;;;;;;3.95;1.38;;;;;;;;;;5026086;28;20040;-76
2021/04/14 13:35:13;;;;;;;3.33;1.10;;;;;;;;;;5048544;28;20042;-75
2021/04/14 13:38:01;;;;;;;4.45;1.33;;;;;;;;;;5026285;28;20076;-75
2021/04/14 13:40:33;;;;;;;3.83;1.00;;;;;;;;;;4989152;28;20066;-75
2021/04/14 13:43:00;;;;;;;3.85;1.23;;;;;;;;;;5015963;28;20053;-75
2021/04/14 13:45:52;;;;;;;7.03;1.05;;;;;;;;;;5068474;28;20029;-75
2021/04/14 13:48:25;;;;;;;3.90;1.23;;;;;;;;;;5043293;28;20065;-76
2021/04/14 13:50:59;;;;;;;1.92;0.95;;;;;;;;;;5032925;28;20033;-75
2021/04/14 13:53:36;;;;;;;3.13;1.00;;;;;;;;;;5047702;28;20030;-75
2021/04/14 13:56:05;;;;;;;2.35;1.27;;;;;;;;;;5032940;28;20029;-75
2021/04/14 13:58:43;;;;;;;4.55;1.27;;;;;;;;;;5032961;28;20025;-75
2021/04/14 14:01:12;;;;;;;4.53;1.35;;;;;;;;;;5040096;28;20029;-75
2021/04/14 14:03:38;;;;;;;3.60;1.08;;;;;;;;;;5012331;28;20473;-76
2021/04/14 14:06:08;;;;;;;2.65;1.20;;;;;;;;;;5013092;28;20116;-76
2021/04/14 14:08:38;;;;;;;3.08;1.08;;;;;;;;;;5012828;28;20068;-76
2021/04/14 14:11:08;;;;;;;4.80;0.93;;;;;;;;;;5013028;28;20026;-76
2021/04/14 14:13:39;;;;;;;3.65;1.13;;;;;;;;;;5013169;28;20050;-76
2021/04/14 14:16:11;;;;;;;3.08;1.17;;;;;;;;;;5031911;28;20357;-75
2021/04/14 14:18:38;;;;;;;4.75;1.20;;;;;;;;;;5042958;28;20048;-76
2021/04/14 14:21:06;;;;;;;7.22;1.10;;;;;;;;;;5066720;28;20040;-75
2021/04/14 14:23:37;;;;;;;2.50;1.17;;;;;;;;;;5051912;28;20021;-75
2021/04/14 14:26:03;;;;;;;2.78;1.40;;;;;;;;;;5052524;28;20033;-75
2021/04/14 14:28:29;;;;;;;9.07;5.43;;;;;;;;;;5036605;28;20487;-75
2021/04/14 14:30:56;;;;;;;3.22;1.40;;;;;;;;;;5050096;28;20074;-75
2021/04/14 14:33:23;;;;;;;8.18;1.80;;;;;;;;;;5048840;28;20070;-75
2021/04/14 14:35:52;;;;;;;6.80;1.10;;;;;;;;;;5052377;28;20514;-75
2021/04/14 14:38:21;;;;;;;3.55;1.10;;;;;;;;;;5052411;28;20554;-75
2021/04/14 14:40:50;;;;;;;3.03;1.02;;;;;;;;;;5052673;28;20039;-76
2021/04/14 14:43:22;;;;;;;4.95;1.17;;;;;;;;;;5066211;28;20028;-76
2021/04/14 14:45:52;;;;;;;4.35;1.05;;;;;;;;;;5064166;28;20104;-76
2021/04/14 14:48:22;;;;;;;1.85;0.90;;;;;;;;;;5051261;28;20029;-75
2021/04/14 14:50:56;;;;;;;6.13;1.42;;;;;;;;;;5052497;28;20075;-76
2021/04/14 14:53:22;;;;;;;5.50;1.13;;;;;;;;;;5051843;28;20061;-76
2021/04/14 14:55:48;;;;;;;2.25;0.90;;;;;;;;;;5052318;28;20036;-75